sensor_id;sensor_type;location;lat;lon;timestamp;P1;durP1;ratioP1;P2;durP2;ratioP2
75054;SDS011;63636;44.746;10.488;2022-12-18T00:00:29;59.20;;;30.48;;
75054;SDS011;63636;44.746;10.488;2022-12-18T00:02:55;58.38;;;30.65;;
75054;SDS011;63636;44.746;10.488;2022-12-18T00:05:21;60.50;;;31.33;;
75054;SDS011;63636;44.746;10.488;2022-12-18T00:07:46;54.25;;;29.63;;
75054;SDS011;63636;44.746;10.488;2022-12-18T00:10:12;60.00;;;29.42;;
75054;SDS011;63636;44.746;10.488;2022-12-18T00:12:37;60.38;;;30.00;;
75054;SDS011;63636;44.746;10.488;2022-12-18T00:15:03;59.60;;;29.85;;
75054;SDS011;63636;44.746;10.488;2022-12-18T00:17:28;55.00;;;28.33;;
75054;SDS011;63636;44.746;10.488;2022-12-18T00:19:54;56.78;;;28.65;;
75054;SDS011;63636;44.746;10.488;2022-12-18T00:22:19;57.17;;;28.95;;
75054;SDS011;63636;44.746;10.488;2022-12-18T00:24:45;60.17;;;30.27;;
75054;SDS011;63636;44.746;10.488;2022-12-18T00:27:10;57.95;;;29.63;;
75054;SDS011;63636;44.746;10.488;2022-12-18T00:29:36;58.28;;;28.95;;
75054;SDS011;63636;44.746;10.488;2022-12-18T00:32:01;55.78;;;28.75;;
75054;SDS011;63636;44.746;10.488;2022-12-18T00:34:27;59.00;;;28.80;;
75054;SDS011;63636;44.746;10.488;2022-12-18T00:36:52;56.70;;;28.45;;
75054;SDS011;63636;44.746;10.488;2022-12-18T00:39:18;56.25;;;29.10;;
75054;SDS011;63636;44.746;10.488;2022-12-18T00:41:44;52.58;;;28.38;;
75054;SDS011;63636;44.746;10.488;2022-12-18T00:44:28;55.42;;;29.02;;
75054;SDS011;63636;44.746;10.488;2022-12-18T00:46:53;58.05;;;29.90;;
75054;SDS011;63636;44.746;10.488;2022-12-18T00:49:19;55.88;;;28.48;;
75054;SDS011;63636;44.746;10.488;2022-12-18T00:51:45;52.25;;;27.67;;
75054;SDS011;63636;44.746;10.488;2022-12-18T00:54:10;53.35;;;28.08;;
75054;SDS011;63636;44.746;10.488;2022-12-18T00:56:37;55.38;;;29.58;;
75054;SDS011;63636;44.746;10.488;2022-12-18T00:59:03;54.72;;;28.52;;
75054;SDS011;63636;44.746;10.488;2022-12-18T01:01:30;56.40;;;29.15;;
75054;SDS011;63636;44.746;10.488;2022-12-18T01:03:57;56.30;;;29.45;;
75054;SDS011;63636;44.746;10.488;2022-12-18T01:06:22;56.88;;;27.95;;
75054;SDS011;63636;44.746;10.488;2022-12-18T01:08:48;57.40;;;29.45;;
75054;SDS011;63636;44.746;10.488;2022-12-18T01:11:15;56.47;;;29.08;;
75054;SDS011;63636;44.746;10.488;2022-12-18T01:13:40;55.63;;;28.27;;
75054;SDS011;63636;44.746;10.488;2022-12-18T01:16:06;56.20;;;29.05;;
75054;SDS011;63636;44.746;10.488;2022-12-18T01:18:34;52.17;;;28.23;;
75054;SDS011;63636;44.746;10.488;2022-12-18T01:21:00;57.22;;;28.73;;
75054;SDS011;63636;44.746;10.488;2022-12-18T01:23:25;60.40;;;31.48;;
75054;SDS011;63636;44.746;10.488;2022-12-18T01:25:51;58.92;;;29.58;;
75054;SDS011;63636;44.746;10.488;2022-12-18T01:28:16;55.20;;;27.95;;
75054;SDS011;63636;44.746;10.488;2022-12-18T01:30:42;56.42;;;27.90;;
75054;SDS011;63636;44.746;10.488;2022-12-18T01:33:07;55.47;;;28.17;;
75054;SDS011;63636;44.746;10.488;2022-12-18T01:35:39;50.38;;;28.23;;
75054;SDS011;63636;44.746;10.488;2022-12-18T01:38:05;46.28;;;25.65;;
75054;SDS011;63636;44.746;10.488;2022-12-18T01:40:30;50.08;;;26.25;;
75054;SDS011;63636;44.746;10.488;2022-12-18T01:42:56;46.17;;;25.20;;
75054;SDS011;63636;44.746;10.488;2022-12-18T01:45:22;51.67;;;26.05;;
75054;SDS011;63636;44.746;10.488;2022-12-18T01:50:18;48.42;;;25.63;;
75054;SDS011;63636;44.746;10.488;2022-12-18T01:52:47;47.45;;;25.17;;
75054;SDS011;63636;44.746;10.488;2022-12-18T01:55:14;48.00;;;25.83;;
75054;SDS011;63636;44.746;10.488;2022-12-18T01:57:40;49.17;;;25.15;;
75054;SDS011;63636;44.746;10.488;2022-12-18T02:00:10;48.25;;;25.25;;
75054;SDS011;63636;44.746;10.488;2022-12-18T02:02:40;43.47;;;24.30;;
75054;SDS011;63636;44.746;10.488;2022-12-18T02:05:06;44.95;;;24.25;;
75054;SDS011;63636;44.746;10.488;2022-12-18T02:10:20;38.35;;;22.13;;
75054;SDS011;63636;44.746;10.488;2022-12-18T02:18:05;43.25;;;23.40;;
75054;SDS011;63636;44.746;10.488;2022-12-18T02:20:44;44.00;;;23.38;;
75054;SDS011;63636;44.746;10.488;2022-12-18T02:26:07;39.10;;;22.23;;
75054;SDS011;63636;44.746;10.488;2022-12-18T02:28:36;39.65;;;21.40;;
75054;SDS011;63636;44.746;10.488;2022-12-18T02:31:06;40.20;;;21.40;;
75054;SDS011;63636;44.746;10.488;2022-12-18T02:33:33;39.08;;;20.77;;
75054;SDS011;63636;44.746;10.488;2022-12-18T02:36:00;34.78;;;19.83;;
75054;SDS011;63636;44.746;10.488;2022-12-18T02:38:27;35.92;;;20.05;;
75054;SDS011;63636;44.746;10.488;2022-12-18T02:40:55;33.63;;;18.92;;
75054;SDS011;63636;44.746;10.488;2022-12-18T02:43:22;35.70;;;18.60;;
75054;SDS011;63636;44.746;10.488;2022-12-18T02:45:48;34.10;;;18.65;;
75054;SDS011;63636;44.746;10.488;2022-12-18T02:48:15;32.10;;;18.60;;
75054;SDS011;63636;44.746;10.488;2022-12-18T02:50:50;32.17;;;17.80;;
75054;SDS011;63636;44.746;10.488;2022-12-18T03:03:47;27.90;;;15.65;;
75054;SDS011;63636;44.746;10.488;2022-12-18T03:08:50;23.35;;;13.80;;
75054;SDS011;63636;44.746;10.488;2022-12-18T03:11:17;24.17;;;13.80;;
75054;SDS011;63636;44.746;10.488;2022-12-18T03:14:04;22.35;;;12.68;;
75054;SDS011;63636;44.746;10.488;2022-12-18T03:16:33;20.45;;;11.80;;
75054;SDS011;63636;44.746;10.488;2022-12-18T03:19:03;19.45;;;11.20;;
75054;SDS011;63636;44.746;10.488;2022-12-18T03:21:33;19.90;;;11.88;;
75054;SDS011;63636;44.746;10.488;2022-12-18T03:23:59;23.67;;;12.88;;
75054;SDS011;63636;44.746;10.488;2022-12-18T03:26:27;26.25;;;14.35;;
75054;SDS011;63636;44.746;10.488;2022-12-18T03:28:59;31.35;;;16.58;;
75054;SDS011;63636;44.746;10.488;2022-12-18T03:31:28;37.33;;;19.33;;
75054;SDS011;63636;44.746;10.488;2022-12-18T03:33:59;40.00;;;20.75;;
75054;SDS011;63636;44.746;10.488;2022-12-18T03:36:35;39.38;;;20.35;;
75054;SDS011;63636;44.746;10.488;2022-12-18T03:39:01;47.03;;;22.98;;
75054;SDS011;63636;44.746;10.488;2022-12-18T03:44:27;43.97;;;22.50;;
75054;SDS011;63636;44.746;10.488;2022-12-18T03:47:08;43.05;;;23.17;;
75054;SDS011;63636;44.746;10.488;2022-12-18T03:52:24;43.70;;;22.02;;
75054;SDS011;63636;44.746;10.488;2022-12-18T03:54:52;41.92;;;22.23;;
75054;SDS011;63636;44.746;10.488;2022-12-18T03:57:20;42.88;;;22.23;;
75054;SDS011;63636;44.746;10.488;2022-12-18T03:59:54;43.40;;;22.73;;
75054;SDS011;63636;44.746;10.488;2022-12-18T04:02:23;42.63;;;22.73;;
75054;SDS011;63636;44.746;10.488;2022-12-18T04:04:51;42.15;;;22.92;;
75054;SDS011;63636;44.746;10.488;2022-12-18T04:07:18;43.45;;;22.75;;
75054;SDS011;63636;44.746;10.488;2022-12-18T04:09:45;41.03;;;22.33;;
75054;SDS011;63636;44.746;10.488;2022-12-18T04:12:12;41.97;;;22.27;;
75054;SDS011;63636;44.746;10.488;2022-12-18T04:14:38;43.20;;;23.08;;
75054;SDS011;63636;44.746;10.488;2022-12-18T04:17:06;44.00;;;23.63;;
75054;SDS011;63636;44.746;10.488;2022-12-18T04:19:33;43.65;;;22.45;;
75054;SDS011;63636;44.746;10.488;2022-12-18T04:22:00;44.45;;;23.33;;
75054;SDS011;63636;44.746;10.488;2022-12-18T04:24:28;46.55;;;23.42;;
75054;SDS011;63636;44.746;10.488;2022-12-18T04:27:04;45.55;;;23.17;;
75054;SDS011;63636;44.746;10.488;2022-12-18T04:29:33;43.03;;;22.67;;
75054;SDS011;63636;44.746;10.488;2022-12-18T04:31:59;42.95;;;22.58;;
75054;SDS011;63636;44.746;10.488;2022-12-18T04:34:27;41.83;;;22.25;;
75054;SDS011;63636;44.746;10.488;2022-12-18T04:36:54;41.05;;;22.10;;
75054;SDS011;63636;44.746;10.488;2022-12-18T04:39:21;40.45;;;21.92;;
75054;SDS011;63636;44.746;10.488;2022-12-18T04:41:49;42.38;;;23.02;;
75054;SDS011;63636;44.746;10.488;2022-12-18T04:44:14;44.00;;;22.20;;
75054;SDS011;63636;44.746;10.488;2022-12-18T04:46:40;44.17;;;23.00;;
75054;SDS011;63636;44.746;10.488;2022-12-18T04:49:05;49.40;;;25.85;;
75054;SDS011;63636;44.746;10.488;2022-12-18T04:51:31;49.35;;;25.42;;
75054;SDS011;63636;44.746;10.488;2022-12-18T04:53:56;49.50;;;24.80;;
75054;SDS011;63636;44.746;10.488;2022-12-18T04:56:22;49.53;;;23.92;;
75054;SDS011;63636;44.746;10.488;2022-12-18T04:58:48;49.35;;;24.95;;
75054;SDS011;63636;44.746;10.488;2022-12-18T05:01:14;46.90;;;23.88;;
75054;SDS011;63636;44.746;10.488;2022-12-18T05:03:40;47.47;;;24.63;;
75054;SDS011;63636;44.746;10.488;2022-12-18T05:06:06;47.72;;;23.67;;
75054;SDS011;63636;44.746;10.488;2022-12-18T05:08:31;47.22;;;24.55;;
75054;SDS011;63636;44.746;10.488;2022-12-18T05:10:58;44.72;;;23.17;;
75054;SDS011;63636;44.746;10.488;2022-12-18T05:13:23;47.53;;;23.33;;
75054;SDS011;63636;44.746;10.488;2022-12-18T05:15:52;45.28;;;22.95;;
75054;SDS011;63636;44.746;10.488;2022-12-18T05:18:18;46.15;;;23.17;;
75054;SDS011;63636;44.746;10.488;2022-12-18T05:20:43;44.55;;;23.17;;
75054;SDS011;63636;44.746;10.488;2022-12-18T05:23:09;43.25;;;23.20;;
75054;SDS011;63636;44.746;10.488;2022-12-18T05:25:34;45.08;;;23.63;;
75054;SDS011;63636;44.746;10.488;2022-12-18T05:28:00;44.13;;;22.58;;
75054;SDS011;63636;44.746;10.488;2022-12-18T05:30:25;44.33;;;23.20;;
75054;SDS011;63636;44.746;10.488;2022-12-18T05:32:51;48.40;;;23.27;;
75054;SDS011;63636;44.746;10.488;2022-12-18T05:35:17;47.13;;;23.58;;
75054;SDS011;63636;44.746;10.488;2022-12-18T05:37:42;44.97;;;22.85;;
75054;SDS011;63636;44.746;10.488;2022-12-18T05:40:08;45.97;;;23.42;;
75054;SDS011;63636;44.746;10.488;2022-12-18T05:42:33;46.83;;;23.30;;
75054;SDS011;63636;44.746;10.488;2022-12-18T05:44:59;45.60;;;23.10;;
75054;SDS011;63636;44.746;10.488;2022-12-18T05:47:24;43.80;;;22.27;;
75054;SDS011;63636;44.746;10.488;2022-12-18T05:49:50;45.42;;;23.38;;
75054;SDS011;63636;44.746;10.488;2022-12-18T05:52:16;45.88;;;22.73;;
75054;SDS011;63636;44.746;10.488;2022-12-18T05:54:41;43.95;;;23.30;;
75054;SDS011;63636;44.746;10.488;2022-12-18T05:57:06;43.88;;;22.35;;
75054;SDS011;63636;44.746;10.488;2022-12-18T05:59:32;43.45;;;22.80;;
75054;SDS011;63636;44.746;10.488;2022-12-18T06:01:58;44.33;;;22.17;;
75054;SDS011;63636;44.746;10.488;2022-12-18T06:04:23;41.85;;;21.35;;
75054;SDS011;63636;44.746;10.488;2022-12-18T06:06:49;40.30;;;22.23;;
75054;SDS011;63636;44.746;10.488;2022-12-18T06:09:14;40.28;;;21.67;;
75054;SDS011;63636;44.746;10.488;2022-12-18T06:11:40;39.63;;;21.83;;
75054;SDS011;63636;44.746;10.488;2022-12-18T06:14:05;42.88;;;22.13;;
75054;SDS011;63636;44.746;10.488;2022-12-18T06:16:31;41.50;;;21.55;;
75054;SDS011;63636;44.746;10.488;2022-12-18T06:19:01;41.80;;;22.30;;
75054;SDS011;63636;44.746;10.488;2022-12-18T06:21:27;40.45;;;20.90;;
75054;SDS011;63636;44.746;10.488;2022-12-18T06:23:53;40.47;;;21.60;;
75054;SDS011;63636;44.746;10.488;2022-12-18T06:26:19;42.90;;;22.67;;
75054;SDS011;63636;44.746;10.488;2022-12-18T06:28:44;43.72;;;22.15;;
75054;SDS011;63636;44.746;10.488;2022-12-18T06:31:10;46.05;;;22.33;;
75054;SDS011;63636;44.746;10.488;2022-12-18T06:33:36;43.92;;;22.45;;
75054;SDS011;63636;44.746;10.488;2022-12-18T06:36:07;47.30;;;22.63;;
75054;SDS011;63636;44.746;10.488;2022-12-18T06:38:33;42.08;;;21.33;;
75054;SDS011;63636;44.746;10.488;2022-12-18T06:40:59;42.95;;;21.52;;
75054;SDS011;63636;44.746;10.488;2022-12-18T06:43:24;42.80;;;20.85;;
75054;SDS011;63636;44.746;10.488;2022-12-18T06:45:50;45.03;;;22.20;;
75054;SDS011;63636;44.746;10.488;2022-12-18T06:48:20;40.90;;;20.50;;
75054;SDS011;63636;44.746;10.488;2022-12-18T06:50:46;40.80;;;20.65;;
75054;SDS011;63636;44.746;10.488;2022-12-18T06:53:12;42.95;;;20.05;;
75054;SDS011;63636;44.746;10.488;2022-12-18T06:55:37;39.97;;;20.08;;
75054;SDS011;63636;44.746;10.488;2022-12-18T06:58:03;42.28;;;21.10;;
75054;SDS011;63636;44.746;10.488;2022-12-18T07:00:28;44.17;;;20.60;;
75054;SDS011;63636;44.746;10.488;2022-12-18T07:02:54;40.55;;;20.95;;
75054;SDS011;63636;44.746;10.488;2022-12-18T07:05:19;40.25;;;20.88;;
75054;SDS011;63636;44.746;10.488;2022-12-18T07:07:45;40.67;;;21.42;;
75054;SDS011;63636;44.746;10.488;2022-12-18T07:10:10;44.92;;;22.00;;
75054;SDS011;63636;44.746;10.488;2022-12-18T07:12:36;41.13;;;21.38;;
75054;SDS011;63636;44.746;10.488;2022-12-18T07:15:02;43.83;;;22.10;;
75054;SDS011;63636;44.746;10.488;2022-12-18T07:17:27;43.38;;;21.95;;
75054;SDS011;63636;44.746;10.488;2022-12-18T07:19:54;44.65;;;21.73;;
75054;SDS011;63636;44.746;10.488;2022-12-18T07:22:20;46.38;;;22.90;;
75054;SDS011;63636;44.746;10.488;2022-12-18T07:24:45;43.83;;;21.60;;
75054;SDS011;63636;44.746;10.488;2022-12-18T07:27:11;46.97;;;21.95;;
75054;SDS011;63636;44.746;10.488;2022-12-18T07:29:36;45.92;;;22.35;;
75054;SDS011;63636;44.746;10.488;2022-12-18T07:32:02;42.55;;;21.65;;
75054;SDS011;63636;44.746;10.488;2022-12-18T07:34:28;48.92;;;22.30;;
75054;SDS011;63636;44.746;10.488;2022-12-18T07:36:53;47.85;;;23.05;;
75054;SDS011;63636;44.746;10.488;2022-12-18T07:39:19;44.75;;;21.42;;
75054;SDS011;63636;44.746;10.488;2022-12-18T07:41:44;48.08;;;23.08;;
75054;SDS011;63636;44.746;10.488;2022-12-18T07:44:31;45.90;;;20.67;;
75054;SDS011;63636;44.746;10.488;2022-12-18T07:46:57;43.38;;;21.27;;
75054;SDS011;63636;44.746;10.488;2022-12-18T07:49:22;44.25;;;21.73;;
75054;SDS011;63636;44.746;10.488;2022-12-18T07:51:48;44.63;;;22.20;;
75054;SDS011;63636;44.746;10.488;2022-12-18T07:54:14;46.22;;;22.10;;
75054;SDS011;63636;44.746;10.488;2022-12-18T07:56:40;47.40;;;22.98;;
75054;SDS011;63636;44.746;10.488;2022-12-18T07:59:05;48.97;;;22.52;;
75054;SDS011;63636;44.746;10.488;2022-12-18T08:01:30;48.35;;;21.88;;
75054;SDS011;63636;44.746;10.488;2022-12-18T08:03:56;50.90;;;22.98;;
75054;SDS011;63636;44.746;10.488;2022-12-18T08:06:22;48.17;;;22.70;;
75054;SDS011;63636;44.746;10.488;2022-12-18T08:08:48;45.00;;;22.15;;
75054;SDS011;63636;44.746;10.488;2022-12-18T08:11:13;45.83;;;21.90;;
75054;SDS011;63636;44.746;10.488;2022-12-18T08:13:39;48.70;;;23.10;;
75054;SDS011;63636;44.746;10.488;2022-12-18T08:16:05;46.33;;;23.00;;
75054;SDS011;63636;44.746;10.488;2022-12-18T08:18:32;46.80;;;22.33;;
75054;SDS011;63636;44.746;10.488;2022-12-18T08:20:57;46.10;;;21.00;;
75054;SDS011;63636;44.746;10.488;2022-12-18T08:23:23;45.55;;;21.67;;
75054;SDS011;63636;44.746;10.488;2022-12-18T08:25:49;47.45;;;21.40;;
75054;SDS011;63636;44.746;10.488;2022-12-18T08:28:15;46.72;;;22.27;;
75054;SDS011;63636;44.746;10.488;2022-12-18T08:30:41;45.95;;;22.35;;
75054;SDS011;63636;44.746;10.488;2022-12-18T08:33:07;53.28;;;22.83;;
75054;SDS011;63636;44.746;10.488;2022-12-18T08:35:36;49.38;;;22.63;;
75054;SDS011;63636;44.746;10.488;2022-12-18T08:38:02;45.72;;;21.13;;
75054;SDS011;63636;44.746;10.488;2022-12-18T08:40:27;52.50;;;23.35;;
75054;SDS011;63636;44.746;10.488;2022-12-18T08:42:53;48.55;;;24.08;;
75054;SDS011;63636;44.746;10.488;2022-12-18T08:45:43;48.63;;;22.30;;
75054;SDS011;63636;44.746;10.488;2022-12-18T08:48:09;43.42;;;20.65;;
75054;SDS011;63636;44.746;10.488;2022-12-18T08:50:34;42.90;;;21.00;;
75054;SDS011;63636;44.746;10.488;2022-12-18T08:53:00;43.90;;;21.27;;
75054;SDS011;63636;44.746;10.488;2022-12-18T08:55:26;44.00;;;21.13;;
75054;SDS011;63636;44.746;10.488;2022-12-18T08:57:51;41.97;;;20.58;;
75054;SDS011;63636;44.746;10.488;2022-12-18T09:00:17;41.97;;;19.90;;
75054;SDS011;63636;44.746;10.488;2022-12-18T09:02:43;40.17;;;19.25;;
75054;SDS011;63636;44.746;10.488;2022-12-18T09:05:08;45.00;;;21.75;;
75054;SDS011;63636;44.746;10.488;2022-12-18T09:07:35;45.08;;;20.95;;
75054;SDS011;63636;44.746;10.488;2022-12-18T09:10:00;39.03;;;19.40;;
75054;SDS011;63636;44.746;10.488;2022-12-18T09:12:26;42.08;;;20.98;;
75054;SDS011;63636;44.746;10.488;2022-12-18T09:14:51;38.58;;;19.25;;
75054;SDS011;63636;44.746;10.488;2022-12-18T09:17:17;40.58;;;20.00;;
75054;SDS011;63636;44.746;10.488;2022-12-18T09:19:42;38.70;;;19.67;;
75054;SDS011;63636;44.746;10.488;2022-12-18T09:22:08;41.92;;;20.58;;
75054;SDS011;63636;44.746;10.488;2022-12-18T09:24:34;41.08;;;20.88;;
75054;SDS011;63636;44.746;10.488;2022-12-18T09:27:00;42.65;;;20.35;;
75054;SDS011;63636;44.746;10.488;2022-12-18T09:29:25;43.83;;;21.13;;
75054;SDS011;63636;44.746;10.488;2022-12-18T09:31:51;44.58;;;20.98;;
75054;SDS011;63636;44.746;10.488;2022-12-18T09:34:16;42.63;;;21.52;;
75054;SDS011;63636;44.746;10.488;2022-12-18T09:36:42;46.42;;;21.33;;
75054;SDS011;63636;44.746;10.488;2022-12-18T09:39:07;43.13;;;21.35;;
75054;SDS011;63636;44.746;10.488;2022-12-18T09:41:36;41.80;;;20.67;;
75054;SDS011;63636;44.746;10.488;2022-12-18T09:44:21;42.33;;;20.42;;
75054;SDS011;63636;44.746;10.488;2022-12-18T09:47:34;45.03;;;21.63;;
75054;SDS011;63636;44.746;10.488;2022-12-18T09:49:36;43.20;;;20.73;;
75054;SDS011;63636;44.746;10.488;2022-12-18T09:52:09;44.33;;;21.33;;
75054;SDS011;63636;44.746;10.488;2022-12-18T09:54:39;45.70;;;22.42;;
75054;SDS011;63636;44.746;10.488;2022-12-18T09:57:05;50.25;;;23.42;;
75054;SDS011;63636;44.746;10.488;2022-12-18T09:59:35;47.55;;;23.17;;
75054;SDS011;63636;44.746;10.488;2022-12-18T10:02:14;47.40;;;22.65;;
75054;SDS011;63636;44.746;10.488;2022-12-18T10:04:40;48.55;;;22.73;;
75054;SDS011;63636;44.746;10.488;2022-12-18T10:09:40;50.22;;;22.63;;
75054;SDS011;63636;44.746;10.488;2022-12-18T10:12:12;49.03;;;22.58;;
75054;SDS011;63636;44.746;10.488;2022-12-18T10:24:42;46.53;;;22.27;;
75054;SDS011;63636;44.746;10.488;2022-12-18T10:27:17;46.10;;;22.13;;
75054;SDS011;63636;44.746;10.488;2022-12-18T10:29:44;46.78;;;21.70;;
75054;SDS011;63636;44.746;10.488;2022-12-18T10:32:18;46.17;;;22.17;;
75054;SDS011;63636;44.746;10.488;2022-12-18T10:34:47;45.10;;;21.42;;
75054;SDS011;63636;44.746;10.488;2022-12-18T10:37:17;46.92;;;21.15;;
75054;SDS011;63636;44.746;10.488;2022-12-18T10:39:43;46.97;;;22.85;;
75054;SDS011;63636;44.746;10.488;2022-12-18T10:42:10;47.17;;;22.25;;
75054;SDS011;63636;44.746;10.488;2022-12-18T10:44:35;47.15;;;22.73;;
75054;SDS011;63636;44.746;10.488;2022-12-18T10:47:05;47.30;;;22.65;;
75054;SDS011;63636;44.746;10.488;2022-12-18T10:49:32;42.28;;;22.20;;
75054;SDS011;63636;44.746;10.488;2022-12-18T10:52:14;46.90;;;22.90;;
75054;SDS011;63636;44.746;10.488;2022-12-18T10:54:39;46.72;;;21.92;;
75054;SDS011;63636;44.746;10.488;2022-12-18T10:57:19;45.90;;;21.88;;
75054;SDS011;63636;44.746;10.488;2022-12-18T10:59:55;44.75;;;22.05;;
75054;SDS011;63636;44.746;10.488;2022-12-18T11:02:54;47.22;;;22.00;;
75054;SDS011;63636;44.746;10.488;2022-12-18T11:05:26;47.17;;;22.35;;
75054;SDS011;63636;44.746;10.488;2022-12-18T11:07:52;44.35;;;20.98;;
75054;SDS011;63636;44.746;10.488;2022-12-18T11:10:20;43.08;;;21.40;;
75054;SDS011;63636;44.746;10.488;2022-12-18T11:12:46;44.97;;;21.77;;
75054;SDS011;63636;44.746;10.488;2022-12-18T11:15:30;44.78;;;21.52;;
75054;SDS011;63636;44.746;10.488;2022-12-18T11:17:56;48.83;;;22.15;;
75054;SDS011;63636;44.746;10.488;2022-12-18T11:22:54;45.83;;;22.35;;
75054;SDS011;63636;44.746;10.488;2022-12-18T11:25:20;45.03;;;22.17;;
75054;SDS011;63636;44.746;10.488;2022-12-18T11:27:56;42.75;;;21.67;;
75054;SDS011;63636;44.746;10.488;2022-12-18T11:30:25;46.83;;;22.40;;
75054;SDS011;63636;44.746;10.488;2022-12-18T11:33:11;47.20;;;22.25;;
75054;SDS011;63636;44.746;10.488;2022-12-18T11:35:42;48.90;;;23.05;;
75054;SDS011;63636;44.746;10.488;2022-12-18T11:40:53;47.22;;;22.35;;
75054;SDS011;63636;44.746;10.488;2022-12-18T11:43:31;46.30;;;22.08;;
75054;SDS011;63636;44.746;10.488;2022-12-18T11:46:07;44.42;;;21.15;;
75054;SDS011;63636;44.746;10.488;2022-12-18T11:48:49;47.88;;;22.05;;
75054;SDS011;63636;44.746;10.488;2022-12-18T11:51:20;48.78;;;22.15;;
75054;SDS011;63636;44.746;10.488;2022-12-18T11:53:48;47.33;;;21.25;;
75054;SDS011;63636;44.746;10.488;2022-12-18T11:58:55;50.83;;;23.92;;
75054;SDS011;63636;44.746;10.488;2022-12-18T12:09:20;47.50;;;21.73;;
75054;SDS011;63636;44.746;10.488;2022-12-18T12:22:17;46.22;;;20.92;;
75054;SDS011;63636;44.746;10.488;2022-12-18T12:32:07;45.85;;;21.38;;
75054;SDS011;63636;44.746;10.488;2022-12-18T12:37:20;43.03;;;19.83;;
75054;SDS011;63636;44.746;10.488;2022-12-18T12:39:47;44.25;;;20.63;;
75054;SDS011;63636;44.746;10.488;2022-12-18T12:45:38;40.10;;;18.50;;
75054;SDS011;63636;44.746;10.488;2022-12-18T12:48:07;41.65;;;19.55;;
75054;SDS011;63636;44.746;10.488;2022-12-18T12:53:06;41.22;;;19.45;;
75054;SDS011;63636;44.746;10.488;2022-12-18T12:55:33;44.47;;;19.92;;
75054;SDS011;63636;44.746;10.488;2022-12-18T12:58:02;40.53;;;19.85;;
75054;SDS011;63636;44.746;10.488;2022-12-18T13:00:35;40.17;;;19.50;;
75054;SDS011;63636;44.746;10.488;2022-12-18T13:03:04;44.40;;;19.85;;
75054;SDS011;63636;44.746;10.488;2022-12-18T13:05:41;41.88;;;19.85;;
75054;SDS011;63636;44.746;10.488;2022-12-18T13:08:22;43.15;;;19.10;;
75054;SDS011;63636;44.746;10.488;2022-12-18T13:10:48;40.95;;;19.98;;
75054;SDS011;63636;44.746;10.488;2022-12-18T13:13:14;46.03;;;20.70;;
75054;SDS011;63636;44.746;10.488;2022-12-18T13:20:39;42.33;;;20.13;;
75054;SDS011;63636;44.746;10.488;2022-12-18T13:28:15;47.92;;;20.38;;
75054;SDS011;63636;44.746;10.488;2022-12-18T13:30:46;42.30;;;19.80;;
75054;SDS011;63636;44.746;10.488;2022-12-18T13:38:22;46.72;;;20.45;;
75054;SDS011;63636;44.746;10.488;2022-12-18T13:45:46;46.72;;;20.70;;
75054;SDS011;63636;44.746;10.488;2022-12-18T13:48:23;47.80;;;20.20;;
75054;SDS011;63636;44.746;10.488;2022-12-18T13:50:52;44.42;;;19.92;;
75054;SDS011;63636;44.746;10.488;2022-12-18T13:53:20;43.20;;;19.60;;
75054;SDS011;63636;44.746;10.488;2022-12-18T13:55:46;49.83;;;21.13;;
75054;SDS011;63636;44.746;10.488;2022-12-18T13:58:12;43.30;;;20.05;;
75054;SDS011;63636;44.746;10.488;2022-12-18T14:00:41;46.08;;;20.40;;
75054;SDS011;63636;44.746;10.488;2022-12-18T14:03:24;44.67;;;21.05;;
75054;SDS011;63636;44.746;10.488;2022-12-18T14:06:05;44.95;;;19.83;;
75054;SDS011;63636;44.746;10.488;2022-12-18T14:08:34;44.05;;;19.67;;
75054;SDS011;63636;44.746;10.488;2022-12-18T14:11:00;45.63;;;20.98;;
75054;SDS011;63636;44.746;10.488;2022-12-18T14:13:31;44.50;;;20.85;;
75054;SDS011;63636;44.746;10.488;2022-12-18T14:15:57;48.13;;;21.05;;
75054;SDS011;63636;44.746;10.488;2022-12-18T14:18:26;44.72;;;21.08;;
75054;SDS011;63636;44.746;10.488;2022-12-18T14:20:54;45.58;;;21.65;;
75054;SDS011;63636;44.746;10.488;2022-12-18T14:25:50;47.15;;;21.58;;
75054;SDS011;63636;44.746;10.488;2022-12-18T14:28:15;45.63;;;21.35;;
75054;SDS011;63636;44.746;10.488;2022-12-18T14:30:43;49.58;;;22.10;;
75054;SDS011;63636;44.746;10.488;2022-12-18T14:33:09;45.65;;;21.13;;
75054;SDS011;63636;44.746;10.488;2022-12-18T14:35:37;47.38;;;20.60;;
75054;SDS011;63636;44.746;10.488;2022-12-18T14:40:34;46.58;;;21.90;;
75054;SDS011;63636;44.746;10.488;2022-12-18T14:43:00;48.22;;;21.92;;
75054;SDS011;63636;44.746;10.488;2022-12-18T14:45:35;45.47;;;21.58;;
75054;SDS011;63636;44.746;10.488;2022-12-18T14:48:51;50.05;;;23.60;;
75054;SDS011;63636;44.746;10.488;2022-12-18T14:53:39;48.03;;;22.17;;
75054;SDS011;63636;44.746;10.488;2022-12-18T14:56:14;48.83;;;22.52;;
75054;SDS011;63636;44.746;10.488;2022-12-18T14:58:43;52.45;;;22.48;;
75054;SDS011;63636;44.746;10.488;2022-12-18T15:01:16;49.92;;;22.98;;
75054;SDS011;63636;44.746;10.488;2022-12-18T15:03:43;52.05;;;22.88;;
75054;SDS011;63636;44.746;10.488;2022-12-18T15:06:21;46.42;;;21.73;;
75054;SDS011;63636;44.746;10.488;2022-12-18T15:08:49;50.25;;;22.50;;
75054;SDS011;63636;44.746;10.488;2022-12-18T15:11:28;51.58;;;21.80;;
75054;SDS011;63636;44.746;10.488;2022-12-18T15:13:54;53.65;;;22.98;;
75054;SDS011;63636;44.746;10.488;2022-12-18T15:16:20;50.38;;;22.35;;
75054;SDS011;63636;44.746;10.488;2022-12-18T15:18:45;49.75;;;23.00;;
75054;SDS011;63636;44.746;10.488;2022-12-18T15:21:17;52.50;;;22.98;;
75054;SDS011;63636;44.746;10.488;2022-12-18T15:26:09;51.72;;;22.33;;
75054;SDS011;63636;44.746;10.488;2022-12-18T15:28:36;55.90;;;24.50;;
75054;SDS011;63636;44.746;10.488;2022-12-18T15:33:33;54.88;;;23.50;;
75054;SDS011;63636;44.746;10.488;2022-12-18T15:35:59;49.55;;;22.10;;
75054;SDS011;63636;44.746;10.488;2022-12-18T15:38:26;50.30;;;22.80;;
75054;SDS011;63636;44.746;10.488;2022-12-18T15:40:52;46.83;;;21.42;;
75054;SDS011;63636;44.746;10.488;2022-12-18T15:43:24;47.33;;;21.13;;
75054;SDS011;63636;44.746;10.488;2022-12-18T15:45:59;52.00;;;22.67;;
75054;SDS011;63636;44.746;10.488;2022-12-18T15:48:25;47.72;;;21.38;;
75054;SDS011;63636;44.746;10.488;2022-12-18T15:50:50;45.15;;;21.20;;
75054;SDS011;63636;44.746;10.488;2022-12-18T15:53:17;52.85;;;22.98;;
75054;SDS011;63636;44.746;10.488;2022-12-18T15:55:43;52.38;;;22.83;;
75054;SDS011;63636;44.746;10.488;2022-12-18T15:58:27;52.20;;;22.92;;
75054;SDS011;63636;44.746;10.488;2022-12-18T16:00:53;51.15;;;22.15;;
75054;SDS011;63636;44.746;10.488;2022-12-18T16:03:20;53.83;;;23.27;;
75054;SDS011;63636;44.746;10.488;2022-12-18T16:05:46;54.95;;;22.95;;
75054;SDS011;63636;44.746;10.488;2022-12-18T16:08:11;53.45;;;23.63;;
75054;SDS011;63636;44.746;10.488;2022-12-18T16:10:39;55.78;;;24.30;;
75054;SDS011;63636;44.746;10.488;2022-12-18T16:13:05;51.33;;;22.52;;